Time;durP1;ratioP1;P1;durP2;ratioP2;P2;SDS_P1;SDS_P2;PMS_P1;PMS_P2;Temp;Humidity;BMP_temperature;BMP_pressure;BME280_temperature;BME280_humidity;BME280_pressure;Samples;Min_cycle;Max_cycle;Signal;HPM_P1;HPM_P2
2022/08/29 00:02:00;;;;;;;4.63;3.33;;;20.80;99.90;;;;;;5015510;28;20021;-76
2022/08/29 00:04:26;;;;;;;7.07;4.45;;;20.80;99.90;;;;;;5015923;28;20034;-76
2022/08/29 00:06:53;;;;;;;7.90;3.70;;;20.80;99.90;;;;;;5014940;28;20025;-76
2022/08/29 00:09:18;;;;;;;6.13;3.58;;;20.70;99.90;;;;;;5015452;28;20042;-77
2022/08/29 00:11:44;;;;;;;5.47;3.72;;;20.70;99.90;;;;;;5015747;28;20029;-77
2022/08/29 00:14:10;;;;;;;8.32;3.70;;;20.70;99.90;;;;;;5015002;28;20434;-77
2022/08/29 00:16:35;;;;;;;4.25;3.42;;;20.80;99.90;;;;;;5013125;28;20030;-76
2022/08/29 00:19:01;;;;;;;7.15;3.40;;;20.70;99.90;;;;;;4997977;28;20034;-76
2022/08/29 00:21:27;;;;;;;5.60;3.85;;;20.70;99.90;;;;;;4996073;28;20092;-76
2022/08/29 00:23:52;;;;;;;8.57;3.97;;;20.70;99.90;;;;;;4995933;28;20023;-76
2022/08/29 00:26:18;;;;;;;4.90;3.47;;;20.70;99.90;;;;;;4995174;28;20034;-76
2022/08/29 00:28:44;;;;;;;5.80;3.72;;;20.70;99.90;;;;;;4995668;28;20078;-77
2022/08/29 00:31:09;;;;;;;6.03;4.22;;;20.60;99.90;;;;;;4995480;28;20030;-76
2022/08/29 00:33:35;;;;;;;4.78;3.65;;;20.60;99.90;;;;;;4978467;28;20029;-77
2022/08/29 00:36:01;;;;;;;5.70;3.55;;;20.60;99.90;;;;;;4995320;28;20037;-76
2022/08/29 00:38:27;;;;;;;4.32;3.45;;;20.60;99.90;;;;;;4995830;28;20387;-76
2022/08/29 00:40:55;;;;;;;7.00;3.92;;;20.60;99.90;;;;;;4995604;28;20030;-77
2022/08/29 00:43:28;;;;;;;4.95;3.92;;;20.60;99.90;;;;;;4995062;28;20030;-76
2022/08/29 00:46:08;;;;;;;6.22;3.53;;;20.60;99.90;;;;;;4995507;28;20475;-76
2022/08/29 00:48:36;;;;;;;6.18;3.90;;;20.50;99.90;;;;;;4995344;28;20034;-76
2022/08/29 00:51:06;;;;;;;8.02;3.80;;;20.50;99.90;;;;;;4995202;28;20040;-76
2022/08/29 00:53:40;;;;;;;4.50;3.63;;;20.60;99.90;;;;;;4995174;28;20030;-76
2022/08/29 00:56:08;;;;;;;4.60;3.53;;;20.60;99.90;;;;;;4994764;28;20386;-77
2022/08/29 00:58:46;;;;;;;6.53;3.90;;;20.50;99.90;;;;;;4994999;28;20026;-76
2022/08/29 01:01:12;;;;;;;9.23;3.70;;;20.50;99.90;;;;;;4994599;28;20104;-76
2022/08/29 01:03:38;;;;;;;6.38;3.67;;;20.50;99.90;;;;;;4995215;28;20069;-77
2022/08/29 01:06:05;;;;;;;6.78;3.88;;;20.50;99.90;;;;;;4994810;28;20031;-76
2022/08/29 01:08:31;;;;;;;5.03;3.08;;;20.50;99.90;;;;;;4995100;28;20085;-77
2022/08/29 01:13:45;;;;;;;7.57;4.07;;;20.50;99.90;;;;;;4995068;28;20120;-76
2022/08/29 01:16:13;;;;;;;6.53;3.80;;;20.50;99.90;;;;;;4994627;28;20077;-76
2022/08/29 01:18:41;;;;;;;5.25;3.88;;;20.50;99.90;;;;;;4994829;28;20061;-77
2022/08/29 01:21:33;;;;;;;7.25;3.75;;;20.50;99.90;;;;;;4994410;28;20046;-77
2022/08/29 01:24:05;;;;;;;7.68;4.22;;;20.50;99.90;;;;;;4994848;28;20035;-77
2022/08/29 01:26:31;;;;;;;6.45;3.72;;;20.50;99.90;;;;;;4994625;28;20023;-77
2022/08/29 01:28:58;;;;;;;6.05;3.80;;;20.50;99.90;;;;;;4994398;28;20023;-77
2022/08/29 01:31:35;;;;;;;6.47;3.60;;;20.50;99.90;;;;;;4976852;28;20065;-77
2022/08/29 01:34:01;;;;;;;5.47;3.58;;;20.40;99.90;;;;;;4994752;28;20037;-76
2022/08/29 01:36:32;;;;;;;5.70;3.75;;;20.40;99.90;;;;;;4994106;28;20033;-77
2022/08/29 01:38:58;;;;;;;7.45;4.10;;;20.40;99.90;;;;;;4994623;28;20468;-77
2022/08/29 01:41:24;;;;;;;7.50;3.70;;;20.40;99.90;;;;;;4994084;28;20411;-77
2022/08/29 01:43:53;;;;;;;5.57;3.67;;;20.40;99.90;;;;;;4994453;28;20026;-77
2022/08/29 01:46:28;;;;;;;7.45;3.55;;;20.40;99.90;;;;;;4993748;28;20030;-76
2022/08/29 01:48:55;;;;;;;6.78;3.70;;;20.40;99.90;;;;;;4994466;28;20030;-76
2022/08/29 01:51:21;;;;;;;8.70;4.38;;;20.40;99.90;;;;;;4993838;28;20104;-76
2022/08/29 01:53:46;;;;;;;7.45;3.95;;;20.40;99.90;;;;;;4994365;28;20026;-76
2022/08/29 01:56:21;;;;;;;5.00;3.60;;;20.30;99.90;;;;;;4993853;28;20030;-76
2022/08/29 01:58:48;;;;;;;8.15;3.50;;;20.30;99.90;;;;;;4994076;28;20399;-76
2022/08/29 02:01:18;;;;;;;4.82;3.95;;;20.40;99.90;;;;;;4993542;28;20036;-76
2022/08/29 02:03:44;;;;;;;9.30;3.70;;;20.40;99.90;;;;;;4994471;28;20026;-76
2022/08/29 02:06:10;;;;;;;6.70;3.20;;;20.40;99.90;;;;;;4993723;28;20031;-76
2022/08/29 02:08:40;;;;;;;8.85;3.80;;;20.30;99.90;;;;;;4993627;28;20081;-76
2022/08/29 02:11:10;;;;;;;3.58;3.10;;;20.30;99.90;;;;;;4994028;28;20076;-76
2022/08/29 02:13:44;;;;;;;7.65;3.42;;;20.30;99.90;;;;;;4993952;28;20541;-77
2022/08/29 02:16:11;;;;;;;4.63;3.00;;;20.30;99.90;;;;;;4995872;28;20383;-76
2022/08/29 02:18:37;;;;;;;7.20;3.67;;;20.30;99.90;;;;;;4993816;28;20106;-77
2022/08/29 02:21:03;;;;;;;7.55;3.70;;;20.30;99.90;;;;;;4993314;28;20125;-76
2022/08/29 02:23:29;;;;;;;7.75;3.78;;;20.30;99.90;;;;;;4993076;28;20050;-76
2022/08/29 02:25:56;;;;;;;3.88;3.10;;;20.30;99.90;;;;;;4996230;28;20034;-76
2022/08/29 02:28:23;;;;;;;9.88;3.78;;;20.30;99.90;;;;;;4993234;28;20034;-77
2022/08/29 02:30:52;;;;;;;5.72;3.20;;;20.30;99.90;;;;;;4993407;28;20037;-76
2022/08/29 02:33:19;;;;;;;5.25;3.10;;;20.30;99.90;;;;;;4993296;28;20034;-76
2022/08/29 02:35:45;;;;;;;5.97;4.03;;;20.30;99.90;;;;;;4993397;28;20034;-76
2022/08/29 02:38:11;;;;;;;4.90;3.40;;;20.30;99.90;;;;;;4993172;28;20121;-76
2022/08/29 02:40:37;;;;;;;8.77;3.58;;;20.30;99.90;;;;;;4992960;28;20019;-76
2022/08/29 02:43:04;;;;;;;7.13;3.60;;;20.30;99.90;;;;;;4993436;28;20372;-77
2022/08/29 02:45:31;;;;;;;7.68;3.55;;;20.30;99.90;;;;;;4993163;28;20026;-76
2022/08/29 02:47:57;;;;;;;8.05;3.67;;;20.30;99.90;;;;;;4993445;28;20080;-75
2022/08/29 02:50:24;;;;;;;11.88;3.97;;;20.30;99.90;;;;;;4993045;28;20041;-76
2022/08/29 02:52:51;;;;;;;6.22;3.67;;;20.30;99.90;;;;;;4993527;28;20345;-75
2022/08/29 02:55:19;;;;;;;8.88;3.35;;;20.30;99.90;;;;;;4993034;28;20037;-76
2022/08/29 02:57:45;;;;;;;6.55;3.85;;;20.30;99.90;;;;;;4993308;28;20023;-76
2022/08/29 03:00:18;;;;;;;5.65;3.60;;;20.30;99.90;;;;;;4992987;28;20387;-77
2022/08/29 03:02:46;;;;;;;4.97;3.70;;;20.20;99.90;;;;;;4993239;28;20053;-76
2022/08/29 03:05:13;;;;;;;8.18;4.22;;;20.30;99.90;;;;;;4993301;28;20041;-76
2022/08/29 03:07:39;;;;;;;5.97;3.38;;;20.30;99.90;;;;;;4993446;28;20113;-76
2022/08/29 03:10:06;;;;;;;6.38;3.90;;;20.20;99.90;;;;;;4993287;28;20031;-76
2022/08/29 03:12:33;;;;;;;4.57;3.22;;;20.20;99.90;;;;;;4992805;28;20092;-76
2022/08/29 03:14:59;;;;;;;5.68;3.40;;;20.30;99.90;;;;;;4993000;28;20106;-75
2022/08/29 03:17:25;;;;;;;5.47;3.78;;;20.30;99.90;;;;;;4992370;28;20122;-75
2022/08/29 03:19:50;;;;;;;6.95;4.00;;;20.30;99.90;;;;;;4992538;28;20034;-77
2022/08/29 03:22:16;;;;;;;5.00;3.63;;;20.30;99.90;;;;;;4992594;28;20085;-78
2022/08/29 03:24:42;;;;;;;6.95;4.30;;;20.20;99.90;;;;;;4992857;28;20093;-77
2022/08/29 03:27:08;;;;;;;7.57;4.32;;;20.20;99.90;;;;;;4992528;28;20368;-77
2022/08/29 03:29:34;;;;;;;5.03;2.90;;;20.20;99.90;;;;;;4992629;28;20038;-77
2022/08/29 03:31:59;;;;;;;6.85;3.17;;;20.20;99.90;;;;;;4992598;28;20034;-76
2022/08/29 03:34:27;;;;;;;6.82;3.22;;;20.20;99.90;;;;;;4992388;28;20031;-76
2022/08/29 03:36:53;;;;;;;7.72;3.40;;;20.20;99.90;;;;;;4992680;28;20027;-76
2022/08/29 03:39:19;;;;;;;5.22;2.95;;;20.20;99.90;;;;;;4992239;28;20093;-75
2022/08/29 03:41:45;;;;;;;3.90;3.00;;;20.20;99.90;;;;;;4992607;28;20471;-76
2022/08/29 03:44:11;;;;;;;6.20;3.33;;;20.20;99.90;;;;;;4992522;28;20034;-75
2022/08/29 03:46:38;;;;;;;3.63;2.80;;;20.20;99.90;;;;;;4992173;28;20113;-76
2022/08/29 03:49:06;;;;;;;5.40;3.13;;;20.10;99.90;;;;;;4992689;28;20368;-76
2022/08/29 03:51:35;;;;;;;6.18;3.47;;;20.20;99.90;;;;;;4994187;28;20508;-76
2022/08/29 03:54:01;;;;;;;5.82;2.92;;;20.20;99.90;;;;;;4996472;28;20026;-75
2022/08/29 03:56:28;;;;;;;5.22;3.33;;;20.20;99.90;;;;;;4995840;28;20072;-75
2022/08/29 03:58:54;;;;;;;6.32;3.40;;;20.20;99.90;;;;;;4996051;28;20038;-76
2022/08/29 04:01:24;;;;;;;5.95;3.60;;;20.10;99.90;;;;;;4995914;28;20026;-77
2022/08/29 04:03:50;;;;;;;6.53;3.43;;;20.10;99.90;;;;;;4996487;28;20030;-76
2022/08/29 04:06:16;;;;;;;5.30;3.25;;;20.10;99.90;;;;;;4995829;28;20042;-76
2022/08/29 04:08:42;;;;;;;6.00;3.35;;;20.10;99.90;;;;;;4995940;28;20030;-76
2022/08/29 04:11:13;;;;;;;5.53;3.13;;;20.10;99.90;;;;;;4996178;28;20038;-77
2022/08/29 04:13:38;;;;;;;4.95;3.50;;;20.10;99.90;;;;;;4996077;28;20030;-77
2022/08/29 04:16:10;;;;;;;9.10;3.47;;;20.10;99.90;;;;;;4996500;28;20468;-76
2022/08/29 04:18:36;;;;;;;;;;;20.10;99.90;;;;;;4997001;28;20467;-77
2022/08/29 04:21:03;;;;;;;5.93;3.20;;;20.10;99.90;;;;;;5015550;28;20270;-77
2022/08/29 04:23:29;;;;;;;4.47;3.25;;;20.10;99.90;;;;;;5015093;28;20088;-77
2022/08/29 04:25:55;;;;;;;6.55;2.72;;;20.10;99.90;;;;;;5015413;28;20383;-76
2022/08/29 04:28:20;;;;;;;8.30;3.00;;;20.10;99.90;;;;;;5015128;28;20030;-77
2022/08/29 04:30:49;;;;;;;6.13;2.90;;;20.10;99.70;;;;;;5006231;28;20419;-77
2022/08/29 04:33:16;;;;;;;7.25;2.90;;;20.10;99.90;;;;;;4996094;28;20057;-77
2022/08/29 04:35:41;;;;;;;6.97;3.03;;;20.10;99.90;;;;;;4995389;28;20466;-77
2022/08/29 04:38:07;;;;;;;9.80;3.22;;;20.20;99.70;;;;;;4995630;28;20039;-77
2022/08/29 04:40:35;;;;;;;6.25;3.25;;;20.10;99.50;;;;;;4995214;28;20095;-77
2022/08/29 04:43:01;;;;;;;7.15;2.80;;;20.10;99.30;;;;;;4995554;28;20033;-77
2022/08/29 04:45:27;;;;;;;9.05;3.10;;;20.20;99.20;;;;;;4995112;28;20038;-77
2022/08/29 04:47:52;;;;;;;8.15;3.55;;;20.10;99.30;;;;;;4995495;28;20486;-77
2022/08/29 04:50:21;;;;;;;6.30;2.97;;;20.10;99.40;;;;;;4995138;28;20034;-77
2022/08/29 04:52:48;;;;;;;5.35;2.83;;;20.10;99.60;;;;;;4995530;28;20031;-75
2022/08/29 04:55:16;;;;;;;5.90;3.20;;;20.10;99.70;;;;;;4995647;28;20070;-75
2022/08/29 04:57:41;;;;;;;6.95;2.97;;;20.10;99.60;;;;;;4994865;28;20033;-77
2022/08/29 05:00:11;;;;;;;5.38;3.25;;;20.10;99.30;;;;;;4995050;28;20031;-77
2022/08/29 05:02:38;;;;;;;5.07;2.75;;;20.10;99.20;;;;;;4994031;28;20026;-77
2022/08/29 05:05:05;;;;;;;3.83;3.10;;;20.10;99.20;;;;;;4995253;28;20367;-77
2022/08/29 05:07:31;;;;;;;6.32;2.67;;;20.10;99.30;;;;;;4994782;28;20026;-77
2022/08/29 05:10:06;;;;;;;7.35;2.67;;;20.20;99.40;;;;;;4995212;28;20031;-77
2022/08/29 05:12:32;;;;;;;4.85;3.00;;;20.20;99.40;;;;;;4994641;28;20030;-76
2022/08/29 05:14:58;;;;;;;4.32;2.95;;;20.20;99.40;;;;;;4994811;28;20529;-77
2022/08/29 05:17:25;;;;;;;4.85;3.17;;;20.20;99.30;;;;;;4994298;28;20058;-76
2022/08/29 05:19:51;;;;;;;5.75;2.55;;;20.20;99.10;;;;;;4994859;28;20041;-76
2022/08/29 05:22:18;;;;;;;7.07;3.35;;;20.20;98.80;;;;;;4994853;28;20042;-75
2022/08/29 05:24:45;;;;;;;6.05;2.70;;;20.20;99.10;;;;;;4994769;28;20031;-75
2022/08/29 05:27:14;;;;;;;6.93;3.40;;;20.20;99.10;;;;;;4994762;28;20034;-77
2022/08/29 05:29:42;;;;;;;6.53;3.22;;;20.20;99.10;;;;;;4994210;28;20027;-77
2022/08/29 05:32:09;;;;;;;4.63;2.90;;;20.20;99.20;;;;;;4994161;28;20537;-77
2022/08/29 05:34:35;;;;;;;5.03;2.95;;;20.20;99.00;;;;;;4994251;28;20030;-77
2022/08/29 05:37:09;;;;;;;7.03;3.28;;;20.20;98.90;;;;;;4994515;28;20018;-77
2022/08/29 05:39:37;;;;;;;7.22;3.35;;;20.20;98.90;;;;;;4994174;28;20019;-77
2022/08/29 05:42:03;;;;;;;4.43;3.00;;;20.20;99.10;;;;;;4994066;28;20386;-77
2022/08/29 05:44:31;;;;;;;7.10;3.13;;;20.20;99.10;;;;;;4993659;28;20034;-77
2022/08/29 05:46:58;;;;;;;5.97;2.85;;;20.20;98.90;;;;;;4994319;28;20030;-77
2022/08/29 05:49:24;;;;;;;5.57;2.90;;;20.30;98.60;;;;;;4993610;28;20467;-77
2022/08/29 05:51:53;;;;;;;6.25;3.33;;;20.20;98.70;;;;;;4994146;28;20030;-77
2022/08/29 05:54:20;;;;;;;9.32;2.72;;;20.20;98.90;;;;;;4993838;28;20554;-77
2022/08/29 05:56:46;;;;;;;6.43;3.30;;;20.30;98.70;;;;;;4993792;28;20077;-77
2022/08/29 05:59:12;;;;;;;7.25;3.40;;;20.20;98.70;;;;;;4994085;28;20031;-77
2022/08/29 06:01:38;;;;;;;6.30;2.58;;;20.30;98.80;;;;;;4993670;28;20022;-77
2022/08/29 06:04:04;;;;;;;10.35;3.45;;;20.30;98.80;;;;;;4994022;28;20117;-77
2022/08/29 06:06:30;;;;;;;9.90;3.58;;;20.30;98.70;;;;;;4993791;28;20109;-77
2022/08/29 06:08:57;;;;;;;10.50;3.15;;;20.30;98.70;;;;;;4993722;28;20486;-77
2022/08/29 06:11:26;;;;;;;8.68;2.90;;;20.20;98.70;;;;;;4993949;28;20033;-77
2022/08/29 06:13:52;;;;;;;5.05;2.97;;;20.20;98.90;;;;;;4992891;28;20113;-76
2022/08/29 06:16:19;;;;;;;6.70;3.15;;;20.20;98.40;;;;;;4993608;28;20065;-76
2022/08/29 06:18:46;;;;;;;4.78;2.50;;;20.20;98.70;;;;;;4993398;28;20724;-76
2022/08/29 06:21:13;;;;;;;5.05;2.70;;;20.20;98.80;;;;;;4993458;28;20160;-77
2022/08/29 06:23:40;;;;;;;5.45;2.65;;;20.20;98.90;;;;;;4993371;28;20046;-77
2022/08/29 06:26:06;;;;;;;6.38;2.90;;;20.20;98.80;;;;;;4995994;28;20054;-76
2022/08/29 06:28:33;;;;;;;6.10;2.92;;;20.30;98.90;;;;;;5003057;28;20101;-77
2022/08/29 06:31:11;;;;;;;8.90;3.70;;;20.30;98.30;;;;;;5012803;28;20475;-77
2022/08/29 06:33:37;;;;;;;7.22;3.40;;;20.40;98.40;;;;;;5012821;28;20040;-77
2022/08/29 06:36:04;;;;;;;7.47;3.67;;;20.40;98.20;;;;;;5013173;28;20022;-77
2022/08/29 06:38:30;;;;;;;9.30;3.55;;;20.50;98.00;;;;;;5012530;28;20058;-77
2022/08/29 06:40:56;;;;;;;4.85;2.80;;;20.60;97.80;;;;;;5013063;28;20061;-77
2022/08/29 06:43:22;;;;;;;3.90;3.08;;;20.70;97.60;;;;;;5012866;28;20033;-76
2022/08/29 06:45:48;;;;;;;4.85;2.83;;;20.80;96.90;;;;;;5012764;28;20030;-76
2022/08/29 06:48:13;;;;;;;6.95;3.00;;;20.90;96.60;;;;;;5013335;28;20518;-75
2022/08/29 06:50:40;;;;;;;4.88;3.20;;;20.90;96.10;;;;;;5012652;28;20030;-75
2022/08/29 06:53:06;;;;;;;6.20;2.92;;;20.80;96.50;;;;;;5012793;28;20475;-75
2022/08/29 06:55:36;;;;;;;5.32;2.95;;;21.00;96.10;;;;;;5012477;28;20105;-75
2022/08/29 06:58:03;;;;;;;7.80;3.78;;;21.20;95.50;;;;;;5012903;28;20471;-76
2022/08/29 07:00:29;;;;;;;4.72;2.72;;;21.30;95.20;;;;;;5012334;28;20053;-76
2022/08/29 07:02:55;;;;;;;4.22;2.75;;;21.60;95.10;;;;;;5013013;28;20490;-76
2022/08/29 07:05:21;;;;;;;5.22;3.13;;;22.00;93.80;;;;;;5013103;28;20034;-75
2022/08/29 07:07:47;;;;;;;4.22;2.83;;;22.50;92.30;;;;;;5012475;28;20026;-76
2022/08/29 07:10:13;;;;;;;6.40;3.20;;;23.00;91.30;;;;;;5012870;28;20080;-77
2022/08/29 07:12:39;;;;;;;6.00;3.13;;;23.50;89.50;;;;;;5012289;28;20041;-77
2022/08/29 07:15:05;;;;;;;6.25;2.72;;;24.30;84.20;;;;;;5012648;28;20041;-76
2022/08/29 07:17:31;;;;;;;5.43;2.97;;;25.10;78.80;;;;;;5012366;28;20030;-76
2022/08/29 07:19:57;;;;;;;11.68;2.80;;;25.50;77.50;;;;;;5012665;28;20053;-75
2022/08/29 07:22:24;;;;;;;6.25;2.45;;;25.50;74.60;;;;;;5012453;28;20488;-75
2022/08/29 07:24:51;;;;;;;6.50;2.60;;;25.50;75.60;;;;;;5012047;28;20778;-76
2022/08/29 07:27:16;;;;;;;7.82;2.42;;;25.80;73.60;;;;;;5016377;28;20034;-74
2022/08/29 07:29:42;;;;;;;6.90;2.90;;;26.30;72.70;;;;;;5015858;28;20088;-75
2022/08/29 07:32:08;;;;;;;4.35;2.70;;;27.20;70.30;;;;;;5016504;28;20034;-74
2022/08/29 07:34:33;;;;;;;6.95;2.67;;;28.30;67.90;;;;;;5016172;28;20490;-76
2022/08/29 07:36:59;;;;;;;6.15;2.58;;;29.50;62.20;;;;;;5016358;28;20026;-75
2022/08/29 07:39:25;;;;;;;4.97;2.50;;;30.20;59.80;;;;;;5016375;28;20351;-75
2022/08/29 07:41:50;;;;;;;2.83;2.30;;;31.00;58.80;;;;;;5015889;28;20470;-77
2022/08/29 07:44:17;;;;;;;6.88;2.22;;;31.70;55.40;;;;;;5016053;28;20220;-74
2022/08/29 07:46:44;;;;;;;4.18;2.40;;;32.80;53.00;;;;;;5015598;28;20026;-77
2022/08/29 07:49:11;;;;;;;5.68;2.28;;;33.40;50.10;;;;;;5015619;28;20493;-76
2022/08/29 07:51:37;;;;;;;6.63;2.60;;;33.90;49.40;;;;;;5015372;28;20041;-77
2022/08/29 07:54:04;;;;;;;4.40;2.50;;;34.00;48.20;;;;;;5015813;28;20029;-77
2022/08/29 07:56:32;;;;;;;3.63;2.47;;;34.60;46.20;;;;;;5015833;28;20088;-76
2022/08/29 07:58:58;;;;;;;3.03;2.15;;;35.00;46.30;;;;;;5016023;28;20375;-77
2022/08/29 08:01:24;;;;;;;4.90;2.40;;;35.50;44.90;;;;;;5015827;28;20033;-76
2022/08/29 08:03:51;;;;;;;6.28;2.40;;;34.60;44.50;;;;;;5015634;28;20072;-76
2022/08/29 08:06:19;;;;;;;4.80;2.67;;;34.20;45.20;;;;;;5015781;28;20021;-76
2022/08/29 08:08:45;;;;;;;2.78;1.95;;;33.80;45.60;;;;;;5015603;28;20026;-75
2022/08/29 08:11:11;;;;;;;4.60;2.08;;;34.10;44.80;;;;;;5015233;28;20076;-76
2022/08/29 08:13:38;;;;;;;3.80;2.70;;;33.80;45.30;;;;;;5015057;28;20030;-75
2022/08/29 08:16:11;;;;;;;3.25;2.05;;;34.00;45.50;;;;;;5015726;28;20022;-75
2022/08/29 08:18:37;;;;;;;6.00;2.08;;;34.60;44.60;;;;;;5015230;28;20486;-76
2022/08/29 08:21:03;;;;;;;3.42;2.00;;;35.40;44.30;;;;;;5014930;28;20049;-76
2022/08/29 08:23:30;;;;;;;5.05;2.53;;;35.50;43.80;;;;;;5015267;28;20567;-75
2022/08/29 08:25:56;;;;;;;5.40;2.22;;;34.40;44.00;;;;;;5014354;28;20045;-78
2022/08/29 08:28:22;;;;;;;2.92;2.35;;;33.80;44.20;;;;;;5015368;28;20030;-76
2022/08/29 08:30:48;;;;;;;3.10;2.15;;;33.10;46.20;;;;;;5015025;28;20026;-78
2022/08/29 08:33:14;;;;;;;6.18;2.28;;;33.80;45.30;;;;;;5015451;28;20108;-78
2022/08/29 08:35:40;;;;;;;5.25;1.98;;;34.30;43.40;;;;;;4998235;28;20125;-77
2022/08/29 08:38:09;;;;;;;4.55;2.30;;;34.40;44.00;;;;;;4994733;28;20034;-76
2022/08/29 08:41:01;;;;;;;3.28;2.17;;;34.80;42.40;;;;;;4995596;28;20034;-77
2022/08/29 08:43:52;;;;;;;3.38;2.10;;;35.00;41.70;;;;;;4996173;28;20049;-76
2022/08/29 08:46:28;;;;;;;3.95;2.28;;;35.10;41.90;;;;;;4985063;28;20743;-76
2022/08/29 08:48:57;;;;;;;7.25;2.42;;;34.60;41.90;;;;;;5004128;28;20026;-77
2022/08/29 08:51:29;;;;;;;3.70;2.30;;;32.80;43.60;;;;;;5008999;28;20030;-77
2022/08/29 08:53:58;;;;;;;4.00;2.15;;;32.00;45.20;;;;;;5014751;28;20040;-77
2022/08/29 08:56:29;;;;;;;4.70;2.17;;;32.00;46.00;;;;;;5014911;28;20026;-75
2022/08/29 08:59:22;;;;;;;3.70;2.30;;;31.70;45.80;;;;;;5014405;28;20076;-77
2022/08/29 09:02:16;;;;;;;3.05;1.77;;;31.10;47.00;;;;;;5014515;28;20030;-77
2022/08/29 09:05:18;;;;;;;4.55;2.20;;;30.60;48.50;;;;;;5014675;28;20034;-77
2022/08/29 09:07:56;;;;;;;4.72;2.05;;;30.40;50.10;;;;;;5014205;28;20378;-77
2022/08/29 09:10:49;;;;;;;4.38;2.35;;;30.10;50.80;;;;;;5014462;28;20065;-75
2022/08/29 09:13:45;;;;;;;3.45;2.10;;;29.60;50.50;;;;;;5014387;28;20057;-76
2022/08/29 09:16:24;;;;;;;3.03;1.90;;;29.40;51.00;;;;;;5014369;28;20030;-75
2022/08/29 09:18:50;;;;;;;5.65;2.42;;;28.90;51.30;;;;;;5013947;28;20033;-77
2022/08/29 09:21:19;;;;;;;5.90;2.33;;;28.50;52.90;;;;;;5013873;28;20111;-77
2022/08/29 09:23:50;;;;;;;5.43;2.40;;;28.40;53.50;;;;;;5013975;28;20065;-77
2022/08/29 09:26:19;;;;;;;3.75;1.92;;;28.20;53.90;;;;;;5014727;28;20411;-77
2022/08/29 09:28:44;;;;;;;4.18;2.33;;;28.20;55.60;;;;;;5013641;28;20024;-77
2022/08/29 09:31:22;;;;;;;5.38;2.40;;;28.20;55.60;;;;;;5014589;28;20415;-77
2022/08/29 09:33:52;;;;;;;7.07;2.70;;;27.80;54.30;;;;;;5013749;28;20030;-76
2022/08/29 09:36:47;;;;;;;3.72;2.30;;;27.50;55.20;;;;;;5014157;28;20029;-76
2022/08/29 09:39:31;;;;;;;4.82;2.95;;;27.60;56.50;;;;;;5014026;28;20030;-76
2022/08/29 09:42:18;;;;;;;4.75;2.38;;;27.60;57.90;;;;;;5013476;28;20100;-76
2022/08/29 09:44:53;;;;;;;5.53;2.40;;;27.70;58.20;;;;;;5013352;28;20032;-76
2022/08/29 09:47:23;;;;;;;5.57;2.60;;;27.50;55.90;;;;;;5013820;28;20069;-76
2022/08/29 09:50:07;;;;;;;3.47;2.42;;;27.40;56.70;;;;;;5012981;28;20490;-76
2022/08/29 09:52:49;;;;;;;4.68;2.17;;;27.40;57.60;;;;;;5013680;28;20045;-76
2022/08/29 09:55:37;;;;;;;8.43;2.85;;;27.40;58.30;;;;;;5013644;28;20033;-76
2022/08/29 09:58:25;;;;;;;4.40;2.33;;;27.30;58.70;;;;;;5013104;28;20112;-76
2022/08/29 10:00:56;;;;;;;4.40;2.13;;;27.30;58.30;;;;;;5013084;28;20018;-77
2022/08/29 10:03:24;;;;;;;5.45;2.22;;;27.30;57.50;;;;;;5013180;28;20034;-75
2022/08/29 10:06:14;;;;;;;2.97;1.92;;;27.30;57.70;;;;;;5012918;28;20038;-74
2022/08/29 10:08:41;;;;;;;5.28;2.17;;;27.40;57.90;;;;;;5012959;28;20471;-75
2022/08/29 10:11:20;;;;;;;3.83;2.20;;;27.50;58.10;;;;;;4994588;28;20395;-75
2022/08/29 10:13:53;;;;;;;4.25;2.17;;;27.50;58.00;;;;;;5012855;28;20033;-75
2022/08/29 10:16:38;;;;;;;5.70;2.40;;;27.60;57.40;;;;;;5013268;28;20026;-75
2022/08/29 10:19:30;;;;;;;6.53;2.40;;;27.40;56.60;;;;;;5012897;28;20025;-75
2022/08/29 10:22:04;;;;;;;3.88;2.28;;;27.20;57.10;;;;;;5008710;28;20054;-76
2022/08/29 10:24:58;;;;;;;4.28;2.10;;;27.30;57.30;;;;;;5013136;28;20029;-77
2022/08/29 10:27:52;;;;;;;3.80;2.20;;;27.30;58.60;;;;;;5003300;28;20503;-76
2022/08/29 10:30:28;;;;;;;5.00;2.17;;;27.30;56.70;;;;;;4993688;28;20069;-77
2022/08/29 10:33:18;;;;;;;3.95;1.95;;;27.30;57.00;;;;;;4993444;28;20030;-76
2022/08/29 10:36:19;;;;;;;3.08;1.75;;;27.40;58.00;;;;;;4993353;28;20034;-76
2022/08/29 10:39:01;;;;;;;3.47;2.08;;;27.40;58.30;;;;;;4951883;28;20061;-75
2022/08/29 10:41:59;;;;;;;3.70;2.03;;;27.50;58.00;;;;;;4993235;28;20101;-76
2022/08/29 10:44:33;;;;;;;2.65;1.50;;;27.50;57.00;;;;;;4993359;28;20030;-75
2022/08/29 10:46:59;;;;;;;1.60;1.50;;;27.60;55.40;;;;;;4992847;28;20042;-76
2022/08/29 10:50:03;;;;;;;3.08;1.45;;;27.70;54.00;;;;;;4993003;28;20030;-77
2022/08/29 10:52:54;;;;;;;3.42;1.65;;;27.80;54.10;;;;;;4980186;28;20053;-77
2022/08/29 10:55:38;;;;;;;3.13;1.63;;;27.80;54.60;;;;;;4993276;28;20022;-76
2022/08/29 10:58:06;;;;;;;3.58;1.60;;;27.70;51.60;;;;;;4992893;28;20348;-76
2022/08/29 11:00:39;;;;;;;2.05;1.70;;;27.60;52.50;;;;;;4995697;28;20464;-76
2022/08/29 11:03:14;;;;;;;1.30;1.20;;;27.50;53.10;;;;;;4998993;28;20120;-75
2022/08/29 11:05:47;;;;;;;4.63;1.60;;;27.60;52.80;;;;;;4999703;28;20033;-76
2022/08/29 11:08:22;;;;;;;4.70;2.50;;;27.70;52.40;;;;;;4999794;28;20030;-75
2022/08/29 11:10:50;;;;;;;4.43;1.67;;;27.80;53.30;;;;;;4999384;28;20034;-75
2022/08/29 11:13:28;;;;;;;4.13;2.03;;;27.90;53.50;;;;;;4999598;28;20030;-75
2022/08/29 11:16:15;;;;;;;6.25;1.70;;;28.00;52.70;;;;;;4999352;28;20034;-75
2022/08/29 11:18:55;;;;;;;2.00;1.45;;;28.00;52.10;;;;;;5000108;28;20050;-76
2022/08/29 11:21:22;;;;;;;;;;;27.90;52.20;;;;;;4999638;28;20046;-75
2022/08/29 11:23:48;;;;;;;2.50;1.67;;;27.90;51.40;;;;;;4999244;28;19913;-74
2022/08/29 11:26:24;;;;;;;2.70;1.50;;;27.80;51.50;;;;;;4999523;28;20037;-76
2022/08/29 11:29:16;;;;;;;2.33;1.60;;;27.70;51.00;;;;;;4998934;28;20030;-76
2022/08/29 11:32:16;;;;;;;1.67;1.35;;;27.70;51.50;;;;;;4999411;28;20027;-75
2022/08/29 11:35:10;;;;;;;2.50;1.42;;;27.70;50.80;;;;;;4999326;28;20053;-74
2022/08/29 11:37:54;;;;;;;1.73;1.45;;;27.70;51.40;;;;;;4998532;28;20416;-76
2022/08/29 11:40:19;;;;;;;2.28;1.38;;;27.90;50.90;;;;;;4999332;28;20034;-77
2022/08/29 11:42:47;;;;;;;2.17;1.40;;;27.90;48.60;;;;;;4999274;28;20081;-76
2022/08/29 11:45:22;;;;;;;3.78;1.30;;;27.80;48.80;;;;;;4998958;28;20022;-75
2022/08/29 11:48:01;;;;;;;6.03;3.30;;;27.70;49.70;;;;;;4999352;28;20528;-76
2022/08/29 11:50:36;;;;;;;4.63;2.10;;;27.80;49.40;;;;;;4999340;28;20030;-76
2022/08/29 11:53:21;;;;;;;3.25;1.77;;;27.90;51.40;;;;;;4998874;28;20460;-76
2022/08/29 11:56:11;;;;;;;3.22;1.60;;;27.80;49.10;;;;;;4999338;28;20058;-75
2022/08/29 11:58:39;;;;;;;2.90;1.77;;;27.80;50.90;;;;;;4999444;28;20062;-77
2022/08/29 12:01:07;;;;;;;1.90;1.13;;;28.00;50.30;;;;;;4998668;28;20101;-76
2022/08/29 12:03:33;;;;;;;3.45;1.45;;;28.00;49.60;;;;;;4999044;28;20041;-76
2022/08/29 12:06:01;;;;;;;2.20;1.50;;;28.10;49.40;;;;;;4998654;28;20387;-77
2022/08/29 12:08:36;;;;;;;3.30;1.80;;;28.20;48.30;;;;;;4999231;28;20049;-77
2022/08/29 12:11:02;;;;;;;3.35;1.10;;;28.20;46.20;;;;;;4998481;28;20026;-74
2022/08/29 12:13:51;;;;;;;1.85;1.25;;;28.20;46.80;;;;;;4995821;28;20608;-75
2022/08/29 12:16:44;;;;;;;2.88;1.40;;;28.10;46.10;;;;;;4995658;28;20026;-75
2022/08/29 12:19:11;;;;;;;3.10;1.40;;;28.10;47.80;;;;;;4995412;28;20446;-75
2022/08/29 12:21:36;;;;;;;3.60;1.38;;;28.00;47.20;;;;;;4995927;28;20391;-77
2022/08/29 12:24:25;;;;;;;2.33;1.20;;;27.90;48.00;;;;;;4995379;28;20030;-76
2022/08/29 12:26:51;;;;;;;2.00;1.17;;;27.70;46.90;;;;;;5010322;28;20018;-76
2022/08/29 12:29:23;;;;;;;2.30;1.60;;;27.70;47.30;;;;;;5014954;28;20029;-76
2022/08/29 12:31:58;;;;;;;2.53;1.40;;;27.60;46.80;;;;;;5015305;28;20041;-77
2022/08/29 12:34:47;;;;;;;3.92;1.48;;;27.50;46.70;;;;;;5015145;28;20534;-76
2022/08/29 12:37:29;;;;;;;2.05;1.25;;;27.40;46.50;;;;;;5014620;28;20053;-77
2022/08/29 12:40:16;;;;;;;1.50;1.05;;;27.30;47.30;;;;;;5015080;28;20100;-76
2022/08/29 12:43:09;;;;;;;4.50;1.45;;;27.20;47.20;;;;;;4997429;28;20398;-77
2022/08/29 12:45:36;;;;;;;2.15;1.27;;;27.10;47.60;;;;;;5009597;28;20036;-77
2022/08/29 12:48:10;;;;;;;3.17;1.27;;;27.10;46.10;;;;;;4995130;28;20034;-76
2022/08/29 12:50:44;;;;;;;2.35;1.30;;;27.00;47.20;;;;;;4995462;28;20122;-76
2022/08/29 12:53:25;;;;;;;4.32;1.38;;;27.00;48.20;;;;;;4994965;28;20038;-76
2022/08/29 12:55:53;;;;;;;2.08;1.50;;;27.00;48.50;;;;;;4995481;28;20073;-77
2022/08/29 12:58:50;;;;;;;1.98;1.02;;;26.90;48.60;;;;;;4994687;28;20030;-75
2022/08/29 13:01:24;;;;;;;2.42;1.58;;;26.80;48.00;;;;;;4994484;28;20093;-75
2022/08/29 13:04:14;;;;;;;3.17;1.48;;;26.80;48.30;;;;;;4994747;28;20125;-75
2022/08/29 13:06:57;;;;;;;3.22;1.38;;;26.80;48.90;;;;;;4995150;28;20026;-77
2022/08/29 13:09:34;;;;;;;2.13;1.38;;;26.80;49.00;;;;;;4994972;28;20387;-76
2022/08/29 13:12:08;;;;;;;1.80;1.30;;;26.70;49.00;;;;;;4994706;28;20500;-75